createdAt,value
2023-10-21T00:03:54.385Z,5.03
2023-10-21T00:08:56.994Z,7.07
2023-10-21T00:13:59.514Z,6.80
2023-10-21T00:19:02.687Z,8.70
2023-10-21T00:24:05.440Z,6.23
2023-10-21T00:29:08.073Z,3.27
2023-10-21T00:34:13.805Z,4.43
2023-10-21T00:39:16.256Z,9.03
2023-10-21T00:44:18.824Z,9.77
2023-10-21T00:49:21.629Z,6.00
2023-10-21T00:54:27.080Z,3.40
2023-10-21T00:59:29.744Z,7.17
2023-10-21T01:04:32.476Z,6.23
2023-10-21T01:09:35.336Z,9.10
2023-10-21T01:14:38.013Z,6.40
2023-10-21T01:19:40.559Z,5.80
2023-10-21T01:24:43.090Z,4.60
2023-10-21T01:29:45.592Z,6.60
2023-10-21T01:34:48.083Z,4.73
2023-10-21T01:39:50.431Z,4.43
2023-10-21T01:44:55.524Z,4.93
2023-10-21T01:49:59.525Z,7.67
2023-10-21T01:55:04.817Z,9.40
2023-10-21T02:00:11.111Z,9.43
2023-10-21T02:05:16.742Z,5.47
2023-10-21T02:10:19.695Z,6.70
2023-10-21T02:15:22.371Z,6.70
2023-10-21T02:20:24.947Z,6.30
2023-10-21T02:25:27.463Z,5.37
2023-10-21T02:30:32.601Z,6.27
2023-10-21T02:35:35.538Z,3.30
2023-10-21T02:40:42.128Z,7.27
2023-10-21T02:45:44.923Z,5.43
2023-10-21T02:50:47.533Z,4.53
2023-10-21T02:55:50.436Z,7.80
2023-10-21T03:00:53.057Z,7.33
2023-10-21T03:05:56.308Z,7.73
2023-10-21T03:10:59.120Z,5.33
2023-10-21T03:16:09.691Z,6.87
2023-10-21T03:21:12.694Z,4.97
2023-10-21T03:26:15.336Z,7.97
2023-10-21T03:31:17.966Z,6.13
2023-10-21T03:36:20.745Z,6.13
2023-10-21T03:41:25.537Z,13.23
2023-10-21T03:46:28.137Z,8.73
2023-10-21T03:51:31.870Z,8.40
2023-10-21T03:56:34.435Z,9.13
2023-10-21T04:01:36.988Z,9.53
2023-10-21T04:06:39.786Z,11.00
2023-10-21T04:11:43.878Z,10.63
2023-10-21T04:16:46.431Z,4.97
2023-10-21T04:21:49.053Z,8.90
2023-10-21T04:26:51.597Z,10.30
2023-10-21T04:31:54.088Z,5.87
2023-10-21T04:36:57.120Z,9.57
2023-10-21T04:41:59.669Z,7.07
2023-10-21T04:47:02.204Z,4.07
2023-10-21T04:52:05.814Z,6.73
2023-10-21T04:57:08.435Z,4.67
2023-10-21T05:02:10.922Z,6.27
2023-10-21T05:07:13.448Z,4.97
2023-10-21T05:12:16.069Z,5.80
2023-10-21T05:17:18.864Z,4.57
2023-10-21T05:22:21.370Z,6.57
2023-10-21T05:27:24.186Z,6.80
2023-10-21T05:32:26.781Z,5.43
2023-10-21T05:37:29.334Z,6.00
2023-10-21T05:42:32.069Z,5.13
2023-10-21T05:47:35.342Z,6.67
2023-10-21T05:52:38.117Z,4.37
2023-10-21T05:57:41.039Z,15.00
2023-10-21T06:02:43.594Z,15.30
2023-10-21T06:07:46.064Z,22.10
2023-10-21T06:12:49.816Z,17.30
2023-10-21T06:17:52.648Z,7.37
2023-10-21T06:22:55.191Z,7.87
2023-10-21T06:27:59.359Z,9.00
2023-10-21T06:33:01.971Z,5.30
2023-10-21T06:38:05.374Z,7.27
2023-10-21T06:43:08.050Z,6.97
2023-10-21T06:48:10.764Z,7.27
2023-10-21T06:53:13.337Z,12.07
2023-10-21T06:58:15.978Z,7.33
2023-10-21T07:03:18.692Z,5.57
2023-10-21T07:08:21.298Z,8.07
2023-10-21T07:13:23.959Z,7.13
2023-10-21T07:18:26.461Z,11.13
2023-10-21T07:23:29.118Z,12.13
2023-10-21T07:28:32.682Z,10.07
2023-10-21T07:33:35.549Z,9.70
2023-10-21T07:38:38.278Z,8.83
2023-10-21T07:43:40.792Z,9.17
2023-10-21T07:48:43.260Z,5.53
2023-10-21T07:53:45.841Z,7.90
2023-10-21T07:58:48.324Z,9.57
2023-10-21T08:03:50.968Z,7.20
2023-10-21T08:08:53.713Z,7.77
2023-10-21T08:13:56.237Z,7.00
2023-10-21T08:18:59.908Z,15.70
2023-10-21T08:24:06.506Z,8.60
2023-10-21T08:29:11.407Z,12.20
2023-10-21T08:34:14.590Z,14.83
2023-10-21T08:39:17.145Z,7.10
2023-10-21T08:44:21.408Z,9.73
2023-10-21T08:49:25.241Z,16.03
2023-10-21T08:54:29.141Z,6.90
2023-10-21T08:59:32.157Z,9.40
2023-10-21T09:04:34.738Z,9.43
2023-10-21T09:09:37.723Z,15.93
2023-10-21T09:14:53.586Z,18.93
2023-10-21T09:19:56.160Z,19.37
2023-10-21T09:25:16.113Z,11.20
2023-10-21T09:30:19.646Z,11.40
2023-10-21T09:35:25.336Z,38.57
2023-10-21T09:40:27.882Z,46.70
2023-10-21T09:45:31.173Z,48.83
2023-10-21T09:50:37.120Z,33.23
2023-10-21T09:55:43.239Z,23.03
2023-10-21T10:00:47.474Z,15.73
2023-10-21T10:05:50.680Z,14.57
2023-10-21T10:10:56.337Z,18.77
2023-10-21T10:16:01.325Z,22.10
2023-10-21T10:21:14.484Z,10.13
2023-10-21T10:26:37.663Z,24.37
2023-10-21T10:31:49.716Z,28.03
2023-10-21T10:36:52.536Z,24.47
2023-10-21T10:41:55.136Z,18.40
2023-10-21T10:46:58.750Z,25.03
2023-10-21T10:52:02.055Z,17.60
2023-10-21T10:57:05.222Z,19.50
2023-10-21T11:02:09.480Z,23.07
2023-10-21T11:07:15.047Z,26.07
2023-10-21T11:12:17.756Z,28.17
2023-10-21T11:17:20.793Z,32.33
2023-10-21T11:22:27.003Z,30.70
2023-10-21T11:27:29.902Z,27.77
2023-10-21T11:32:33.070Z,34.30
2023-10-21T11:37:36.033Z,28.80
2023-10-21T11:42:39.390Z,28.57
2023-10-21T11:47:41.871Z,30.93
2023-10-21T11:52:45.740Z,22.27
2023-10-21T11:58:18.044Z,17.17
2023-10-21T12:03:43.485Z,22.27
2023-10-21T12:09:06.590Z,16.70
2023-10-21T12:14:27.579Z,27.60
2023-10-21T12:19:48.607Z,20.23
2023-10-21T12:25:26.130Z,35.67
2023-10-21T12:30:34.612Z,36.43
2023-10-21T12:35:38.363Z,40.27
2023-10-21T12:40:41.788Z,23.70
2023-10-21T12:45:49.006Z,20.77
2023-10-21T12:50:51.509Z,33.20
2023-10-21T12:55:54.027Z,33.97
2023-10-21T13:00:56.609Z,39.57
2023-10-21T13:05:59.228Z,41.97
2023-10-21T13:11:01.853Z,39.10
2023-10-21T13:16:09.165Z,29.77
2023-10-21T13:21:11.843Z,24.20
2023-10-21T13:26:14.419Z,18.30
2023-10-21T13:31:17.101Z,39.57
2023-10-21T13:36:19.879Z,34.60
2023-10-21T13:41:22.517Z,32.30
2023-10-21T13:46:25.004Z,22.23
2023-10-21T13:51:27.760Z,32.47
2023-10-21T13:56:30.299Z,30.63
2023-10-21T14:01:33.450Z,47.07
2023-10-21T14:06:37.137Z,45.93
2023-10-21T14:11:39.536Z,34.10
2023-10-21T14:16:42.079Z,34.17
2023-10-21T14:21:45.407Z,31.67
2023-10-21T14:26:47.916Z,36.13
2023-10-21T14:31:52.004Z,47.57
2023-10-21T14:36:54.538Z,11.10
2023-10-21T14:41:57.081Z,18.30
2023-10-21T14:47:00.356Z,29.43
2023-10-21T14:52:03.724Z,41.70
2023-10-21T14:57:06.298Z,46.57
2023-10-21T15:02:09.341Z,44.43
2023-10-21T15:07:13.162Z,47.03
2023-10-21T15:12:16.516Z,46.07
2023-10-21T15:17:19.203Z,42.03
2023-10-21T15:22:21.803Z,26.20
2023-10-21T15:27:26.489Z,53.07
2023-10-21T15:32:29.588Z,50.43
2023-10-21T15:37:32.675Z,52.90
2023-10-21T15:42:36.096Z,49.43
2023-10-21T15:47:38.729Z,47.53
2023-10-21T15:52:41.408Z,51.83
2023-10-21T15:57:43.948Z,58.10
2023-10-21T16:02:50.668Z,50.77
2023-10-21T16:07:58.378Z,57.03
2023-10-21T16:13:01.134Z,50.73
2023-10-21T16:18:03.883Z,55.17
2023-10-21T16:23:06.568Z,59.53
2023-10-21T16:28:09.136Z,60.43
2023-10-21T16:33:11.763Z,50.17
2023-10-21T16:38:14.444Z,50.33
2023-10-21T16:43:17.025Z,38.80
2023-10-21T16:48:19.528Z,37.03
2023-10-21T16:53:23.569Z,41.37
2023-10-21T16:58:26.136Z,46.77
2023-10-21T17:03:28.879Z,26.17
2023-10-21T17:08:35.534Z,43.20
2023-10-21T17:13:38.189Z,51.43
2023-10-21T17:18:40.728Z,49.57
2023-10-21T17:23:43.403Z,51.33
2023-10-21T17:28:45.888Z,41.90
2023-10-21T17:33:51.155Z,44.23
2023-10-21T17:38:54.891Z,54.23
2023-10-21T17:43:58.132Z,46.10
2023-10-21T17:49:00.562Z,55.80
2023-10-21T17:54:03.160Z,51.07
2023-10-21T17:59:06.468Z,42.40
2023-10-21T18:04:09.183Z,41.33
2023-10-21T18:09:11.884Z,48.27
2023-10-21T18:14:14.460Z,45.57
2023-10-21T18:19:17.011Z,37.90
2023-10-21T18:24:19.648Z,50.40
2023-10-21T18:29:22.365Z,44.70
2023-10-21T18:40:02.665Z,48.00
2023-10-21T18:45:06.295Z,53.03
2023-10-21T18:50:09.272Z,49.97
2023-10-21T18:55:11.994Z,50.77
2023-10-21T19:00:15.105Z,45.83
2023-10-21T19:05:18.900Z,57.33
2023-10-21T19:10:25.721Z,60.30
2023-10-21T19:15:28.338Z,62.27
2023-10-21T19:20:30.867Z,50.10
2023-10-21T19:25:33.981Z,50.17
2023-10-21T19:30:36.579Z,56.00
2023-10-21T19:35:39.225Z,36.17
2023-10-21T19:40:41.722Z,62.23
2023-10-21T19:45:45.400Z,51.93
2023-10-21T19:50:47.990Z,56.30
2023-10-21T19:55:58.263Z,55.60
2023-10-21T20:01:08.514Z,49.60
2023-10-21T20:06:11.106Z,59.17
2023-10-21T20:11:14.488Z,45.77
2023-10-21T20:16:17.027Z,59.00
2023-10-21T20:21:19.731Z,50.60
2023-10-21T20:26:22.290Z,32.63
2023-10-21T20:31:25.137Z,47.10
2023-10-21T20:36:29.101Z,39.90
2023-10-21T20:41:31.889Z,46.10
2023-10-21T20:46:35.300Z,51.70
2023-10-21T20:51:37.981Z,42.03
2023-10-21T20:56:41.238Z,51.30
2023-10-21T21:01:44.001Z,50.03
2023-10-21T21:06:46.538Z,63.23
2023-10-21T21:11:52.585Z,43.53
2023-10-21T21:16:55.166Z,55.40
2023-10-21T21:21:58.746Z,51.63
2023-10-21T21:27:01.405Z,46.90
2023-10-21T21:32:04.898Z,51.63
2023-10-21T21:37:10.795Z,46.30
2023-10-21T21:42:13.343Z,50.53
2023-10-21T21:47:16.575Z,55.33
2023-10-21T21:52:19.288Z,60.33
2023-10-21T21:57:21.798Z,52.07
2023-10-21T22:02:24.676Z,48.60
2023-10-21T22:07:27.426Z,50.77
2023-10-21T22:12:30.144Z,34.37
2023-10-21T22:17:32.707Z,59.83
2023-10-21T22:22:35.476Z,54.03
2023-10-21T22:27:38.389Z,45.73
2023-10-21T22:32:40.899Z,47.30
2023-10-21T22:37:43.539Z,42.77
2023-10-21T22:42:46.037Z,47.07
2023-10-21T22:47:48.630Z,50.63
2023-10-21T22:52:51.150Z,38.60
2023-10-21T22:57:53.764Z,44.83
2023-10-21T23:03:02.529Z,49.60
2023-10-21T23:08:18.130Z,32.47
2023-10-21T23:13:20.732Z,49.13
2023-10-21T23:18:23.700Z,54.50
2023-10-21T23:23:26.243Z,44.97
2023-10-21T23:28:29.607Z,43.23
2023-10-21T23:33:32.335Z,47.90
2023-10-21T23:38:35.211Z,40.23
2023-10-21T23:43:37.747Z,48.17
2023-10-21T23:48:40.653Z,43.53
2023-10-21T23:53:43.425Z,40.17
2023-10-21T23:58:45.955Z,39.30
